sensor_id;sensor_type;location;lat;lon;timestamp;temperature;humidity
24176;DHT22;12324;48.146;11.502;2022-12-10T00:00:07;0.80;99.90
24176;DHT22;12324;48.146;11.502;2022-12-10T00:02:34;0.80;99.90
24176;DHT22;12324;48.146;11.502;2022-12-10T00:05:01;0.70;99.90
24176;DHT22;12324;48.146;11.502;2022-12-10T00:07:27;0.70;99.90
24176;DHT22;12324;48.146;11.502;2022-12-10T00:09:54;0.70;99.90
24176;DHT22;12324;48.146;11.502;2022-12-10T00:12:21;0.70;99.90
24176;DHT22;12324;48.146;11.502;2022-12-10T00:14:47;0.70;99.90
24176;DHT22;12324;48.146;11.502;2022-12-10T00:17:14;0.70;99.90
24176;DHT22;12324;48.146;11.502;2022-12-10T00:19:41;0.70;99.90
24176;DHT22;12324;48.146;11.502;2022-12-10T00:22:07;0.70;99.90
24176;DHT22;12324;48.146;11.502;2022-12-10T00:24:34;0.80;99.90
24176;DHT22;12324;48.146;11.502;2022-12-10T00:27:01;0.70;99.90
24176;DHT22;12324;48.146;11.502;2022-12-10T00:29:27;0.80;99.90
24176;DHT22;12324;48.146;11.502;2022-12-10T00:31:54;0.80;99.90
24176;DHT22;12324;48.146;11.502;2022-12-10T00:34:21;0.80;99.90
24176;DHT22;12324;48.146;11.502;2022-12-10T00:36:48;0.80;99.90
24176;DHT22;12324;48.146;11.502;2022-12-10T00:39:18;0.80;99.90
24176;DHT22;12324;48.146;11.502;2022-12-10T00:41:45;0.80;99.90
24176;DHT22;12324;48.146;11.502;2022-12-10T00:44:13;0.80;99.90
24176;DHT22;12324;48.146;11.502;2022-12-10T00:46:40;0.80;99.90
24176;DHT22;12324;48.146;11.502;2022-12-10T00:49:07;0.80;99.90
24176;DHT22;12324;48.146;11.502;2022-12-10T00:51:33;0.80;99.90
24176;DHT22;12324;48.146;11.502;2022-12-10T00:54:00;0.80;99.90
24176;DHT22;12324;48.146;11.502;2022-12-10T00:56:30;0.80;99.90
24176;DHT22;12324;48.146;11.502;2022-12-10T00:58:56;0.80;99.90
24176;DHT22;12324;48.146;11.502;2022-12-10T01:01:33;0.80;99.90
24176;DHT22;12324;48.146;11.502;2022-12-10T01:04:20;0.90;99.90
24176;DHT22;12324;48.146;11.502;2022-12-10T01:06:49;0.80;99.90
24176;DHT22;12324;48.146;11.502;2022-12-10T01:09:19;0.80;99.90
24176;DHT22;12324;48.146;11.502;2022-12-10T01:11:47;0.80;99.90
24176;DHT22;12324;48.146;11.502;2022-12-10T01:14:18;0.80;99.90
24176;DHT22;12324;48.146;11.502;2022-12-10T01:16:45;0.80;99.90
24176;DHT22;12324;48.146;11.502;2022-12-10T01:19:12;0.80;99.90
24176;DHT22;12324;48.146;11.502;2022-12-10T01:21:39;0.80;99.90
24176;DHT22;12324;48.146;11.502;2022-12-10T01:24:06;0.80;99.90
24176;DHT22;12324;48.146;11.502;2022-12-10T01:26:34;0.80;99.90
24176;DHT22;12324;48.146;11.502;2022-12-10T01:29:03;0.80;99.90
24176;DHT22;12324;48.146;11.502;2022-12-10T01:31:33;0.80;99.90
24176;DHT22;12324;48.146;11.502;2022-12-10T01:34:01;0.80;99.90
24176;DHT22;12324;48.146;11.502;2022-12-10T01:36:34;0.80;99.90
24176;DHT22;12324;48.146;11.502;2022-12-10T01:39:02;0.80;99.90
24176;DHT22;12324;48.146;11.502;2022-12-10T01:41:41;0.80;99.90
24176;DHT22;12324;48.146;11.502;2022-12-10T01:49:06;0.80;99.90
24176;DHT22;12324;48.146;11.502;2022-12-10T01:51:36;0.70;99.90
24176;DHT22;12324;48.146;11.502;2022-12-10T01:54:05;0.70;99.90
24176;DHT22;12324;48.146;11.502;2022-12-10T01:56:36;0.70;99.90
24176;DHT22;12324;48.146;11.502;2022-12-10T01:59:04;0.70;99.90
24176;DHT22;12324;48.146;11.502;2022-12-10T02:10:04;0.80;99.90
24176;DHT22;12324;48.146;11.502;2022-12-10T02:12:48;0.80;99.90
24176;DHT22;12324;48.146;11.502;2022-12-10T02:15:18;0.80;99.90
24176;DHT22;12324;48.146;11.502;2022-12-10T02:17:50;0.80;99.90
24176;DHT22;12324;48.146;11.502;2022-12-10T02:20:22;0.80;99.90
24176;DHT22;12324;48.146;11.502;2022-12-10T02:23:11;0.70;99.90
24176;DHT22;12324;48.146;11.502;2022-12-10T02:26:12;0.80;99.90
24176;DHT22;12324;48.146;11.502;2022-12-10T02:29:10;0.70;99.90
24176;DHT22;12324;48.146;11.502;2022-12-10T02:31:42;0.70;99.90
24176;DHT22;12324;48.146;11.502;2022-12-10T02:34:11;0.70;99.90
24176;DHT22;12324;48.146;11.502;2022-12-10T02:36:40;0.70;99.90
24176;DHT22;12324;48.146;11.502;2022-12-10T02:39:11;0.70;99.90
24176;DHT22;12324;48.146;11.502;2022-12-10T02:41:42;0.70;99.90
24176;DHT22;12324;48.146;11.502;2022-12-10T02:44:13;0.80;99.90
24176;DHT22;12324;48.146;11.502;2022-12-10T02:46:42;0.80;99.90
24176;DHT22;12324;48.146;11.502;2022-12-10T02:49:12;0.70;99.90
24176;DHT22;12324;48.146;11.502;2022-12-10T02:51:40;0.70;99.90
24176;DHT22;12324;48.146;11.502;2022-12-10T02:57:03;0.70;99.90
24176;DHT22;12324;48.146;11.502;2022-12-10T02:59:39;0.70;99.90
24176;DHT22;12324;48.146;11.502;2022-12-10T03:02:19;0.70;99.90
24176;DHT22;12324;48.146;11.502;2022-12-10T03:05:02;0.70;99.90
24176;DHT22;12324;48.146;11.502;2022-12-10T03:07:46;0.70;99.90
24176;DHT22;12324;48.146;11.502;2022-12-10T03:10:17;0.70;99.90
24176;DHT22;12324;48.146;11.502;2022-12-10T03:12:48;0.70;99.90
24176;DHT22;12324;48.146;11.502;2022-12-10T03:15:18;0.70;99.90
24176;DHT22;12324;48.146;11.502;2022-12-10T03:17:46;0.70;99.90
24176;DHT22;12324;48.146;11.502;2022-12-10T03:20:16;0.70;99.90
24176;DHT22;12324;48.146;11.502;2022-12-10T03:22:45;0.70;99.90
24176;DHT22;12324;48.146;11.502;2022-12-10T03:25:18;0.70;99.90
24176;DHT22;12324;48.146;11.502;2022-12-10T03:27:47;0.70;99.90
24176;DHT22;12324;48.146;11.502;2022-12-10T03:30:16;0.70;99.90
24176;DHT22;12324;48.146;11.502;2022-12-10T03:32:44;0.70;99.90
24176;DHT22;12324;48.146;11.502;2022-12-10T03:35:13;0.70;99.90
24176;DHT22;12324;48.146;11.502;2022-12-10T03:37:41;0.70;99.90
24176;DHT22;12324;48.146;11.502;2022-12-10T03:40:08;0.70;99.90
24176;DHT22;12324;48.146;11.502;2022-12-10T03:42:37;0.70;99.90
24176;DHT22;12324;48.146;11.502;2022-12-10T03:45:04;0.70;99.90
24176;DHT22;12324;48.146;11.502;2022-12-10T03:47:31;0.70;99.90
24176;DHT22;12324;48.146;11.502;2022-12-10T03:49:58;0.70;99.90
24176;DHT22;12324;48.146;11.502;2022-12-10T03:52:25;0.60;99.90
24176;DHT22;12324;48.146;11.502;2022-12-10T03:54:51;0.60;99.90
24176;DHT22;12324;48.146;11.502;2022-12-10T03:57:18;0.60;99.90
24176;DHT22;12324;48.146;11.502;2022-12-10T03:59:45;0.60;99.90
24176;DHT22;12324;48.146;11.502;2022-12-10T04:02:12;0.50;99.90
24176;DHT22;12324;48.146;11.502;2022-12-10T04:04:38;0.50;99.90
24176;DHT22;12324;48.146;11.502;2022-12-10T04:07:05;0.50;99.90
24176;DHT22;12324;48.146;11.502;2022-12-10T04:09:31;0.50;99.90
24176;DHT22;12324;48.146;11.502;2022-12-10T04:11:59;0.60;99.90
24176;DHT22;12324;48.146;11.502;2022-12-10T04:14:26;0.60;99.90
24176;DHT22;12324;48.146;11.502;2022-12-10T04:17:12;0.60;99.90
24176;DHT22;12324;48.146;11.502;2022-12-10T04:19:39;0.60;99.90
24176;DHT22;12324;48.146;11.502;2022-12-10T04:22:05;0.60;99.90
24176;DHT22;12324;48.146;11.502;2022-12-10T04:24:51;0.60;99.90
24176;DHT22;12324;48.146;11.502;2022-12-10T04:27:53;0.60;99.90
24176;DHT22;12324;48.146;11.502;2022-12-10T04:30:19;0.60;99.90
24176;DHT22;12324;48.146;11.502;2022-12-10T04:32:46;0.60;99.90
24176;DHT22;12324;48.146;11.502;2022-12-10T04:35:13;0.60;99.90
24176;DHT22;12324;48.146;11.502;2022-12-10T04:37:39;0.60;99.90
24176;DHT22;12324;48.146;11.502;2022-12-10T04:40:07;0.60;99.90
24176;DHT22;12324;48.146;11.502;2022-12-10T04:42:34;0.60;99.90
24176;DHT22;12324;48.146;11.502;2022-12-10T04:45:00;0.60;99.90
24176;DHT22;12324;48.146;11.502;2022-12-10T04:47:27;0.60;99.90
24176;DHT22;12324;48.146;11.502;2022-12-10T04:49:54;0.60;99.90
24176;DHT22;12324;48.146;11.502;2022-12-10T04:52:20;0.60;99.90
24176;DHT22;12324;48.146;11.502;2022-12-10T04:54:47;0.60;99.90
24176;DHT22;12324;48.146;11.502;2022-12-10T04:57:14;0.50;99.90
24176;DHT22;12324;48.146;11.502;2022-12-10T04:59:41;0.60;99.90
24176;DHT22;12324;48.146;11.502;2022-12-10T05:02:07;0.60;99.90
24176;DHT22;12324;48.146;11.502;2022-12-10T05:04:34;0.60;99.90
24176;DHT22;12324;48.146;11.502;2022-12-10T05:07:01;0.60;99.90
24176;DHT22;12324;48.146;11.502;2022-12-10T05:09:28;0.60;99.90
24176;DHT22;12324;48.146;11.502;2022-12-10T05:11:54;0.60;99.90
24176;DHT22;12324;48.146;11.502;2022-12-10T05:14:21;0.60;99.90
24176;DHT22;12324;48.146;11.502;2022-12-10T05:16:51;0.60;99.90
24176;DHT22;12324;48.146;11.502;2022-12-10T05:19:18;0.60;99.90
24176;DHT22;12324;48.146;11.502;2022-12-10T05:21:50;0.60;99.90
24176;DHT22;12324;48.146;11.502;2022-12-10T05:24:35;0.60;99.90
24176;DHT22;12324;48.146;11.502;2022-12-10T05:27:02;0.70;99.90
24176;DHT22;12324;48.146;11.502;2022-12-10T05:29:29;0.60;99.90
24176;DHT22;12324;48.146;11.502;2022-12-10T05:31:55;0.60;99.90
24176;DHT22;12324;48.146;11.502;2022-12-10T05:34:22;0.70;99.90
24176;DHT22;12324;48.146;11.502;2022-12-10T05:36:49;0.70;99.90
24176;DHT22;12324;48.146;11.502;2022-12-10T05:39:16;0.70;99.90
24176;DHT22;12324;48.146;11.502;2022-12-10T05:41:42;0.60;99.90
24176;DHT22;12324;48.146;11.502;2022-12-10T05:44:10;0.70;99.90
24176;DHT22;12324;48.146;11.502;2022-12-10T05:46:37;0.60;99.90
24176;DHT22;12324;48.146;11.502;2022-12-10T05:49:05;0.70;99.90
24176;DHT22;12324;48.146;11.502;2022-12-10T05:51:33;0.60;99.90
24176;DHT22;12324;48.146;11.502;2022-12-10T05:54:01;0.60;99.90
24176;DHT22;12324;48.146;11.502;2022-12-10T05:56:28;0.60;99.90
24176;DHT22;12324;48.146;11.502;2022-12-10T05:58:58;0.60;99.90
24176;DHT22;12324;48.146;11.502;2022-12-10T06:01:28;0.60;99.90
24176;DHT22;12324;48.146;11.502;2022-12-10T06:03:58;0.50;99.90
24176;DHT22;12324;48.146;11.502;2022-12-10T06:06:29;0.50;99.90
24176;DHT22;12324;48.146;11.502;2022-12-10T06:08:57;0.50;99.90
24176;DHT22;12324;48.146;11.502;2022-12-10T06:11:25;0.40;99.90
24176;DHT22;12324;48.146;11.502;2022-12-10T06:13:53;0.40;99.90
24176;DHT22;12324;48.146;11.502;2022-12-10T06:16:23;0.50;99.90
24176;DHT22;12324;48.146;11.502;2022-12-10T06:18:50;0.40;99.90
24176;DHT22;12324;48.146;11.502;2022-12-10T06:21:18;0.40;99.90
24176;DHT22;12324;48.146;11.502;2022-12-10T06:23:46;0.50;99.90
24176;DHT22;12324;48.146;11.502;2022-12-10T06:26:22;0.50;99.90
24176;DHT22;12324;48.146;11.502;2022-12-10T06:28:50;0.50;99.90
24176;DHT22;12324;48.146;11.502;2022-12-10T06:31:17;0.50;99.90
24176;DHT22;12324;48.146;11.502;2022-12-10T06:33:45;0.50;99.90
24176;DHT22;12324;48.146;11.502;2022-12-10T06:36:14;0.50;99.90
24176;DHT22;12324;48.146;11.502;2022-12-10T06:38:42;0.50;99.90
24176;DHT22;12324;48.146;11.502;2022-12-10T06:41:11;0.50;99.90
24176;DHT22;12324;48.146;11.502;2022-12-10T06:43:38;1.10;99.90
24176;DHT22;12324;48.146;11.502;2022-12-10T06:46:11;1.00;99.90
24176;DHT22;12324;48.146;11.502;2022-12-10T06:48:38;0.90;99.90
24176;DHT22;12324;48.146;11.502;2022-12-10T06:51:06;0.70;99.90
24176;DHT22;12324;48.146;11.502;2022-12-10T06:53:34;0.70;99.90
24176;DHT22;12324;48.146;11.502;2022-12-10T06:56:02;0.70;99.90
24176;DHT22;12324;48.146;11.502;2022-12-10T06:58:30;0.60;99.90
24176;DHT22;12324;48.146;11.502;2022-12-10T07:01:08;0.60;99.90
24176;DHT22;12324;48.146;11.502;2022-12-10T07:03:35;0.60;99.90
24176;DHT22;12324;48.146;11.502;2022-12-10T07:06:03;0.50;99.90
24176;DHT22;12324;48.146;11.502;2022-12-10T07:08:30;0.60;99.90
24176;DHT22;12324;48.146;11.502;2022-12-10T07:10:57;0.50;99.90
24176;DHT22;12324;48.146;11.502;2022-12-10T07:13:24;0.50;99.90
24176;DHT22;12324;48.146;11.502;2022-12-10T07:15:56;0.50;99.90
24176;DHT22;12324;48.146;11.502;2022-12-10T07:18:24;0.50;99.90
24176;DHT22;12324;48.146;11.502;2022-12-10T07:20:51;0.50;99.90
24176;DHT22;12324;48.146;11.502;2022-12-10T07:23:18;0.50;99.90
24176;DHT22;12324;48.146;11.502;2022-12-10T07:25:45;0.50;99.90
24176;DHT22;12324;48.146;11.502;2022-12-10T07:28:11;0.50;99.90
24176;DHT22;12324;48.146;11.502;2022-12-10T07:30:38;0.60;99.90
24176;DHT22;12324;48.146;11.502;2022-12-10T07:33:05;0.70;99.90
24176;DHT22;12324;48.146;11.502;2022-12-10T07:35:31;0.60;99.90
24176;DHT22;12324;48.146;11.502;2022-12-10T07:37:58;0.70;99.90
24176;DHT22;12324;48.146;11.502;2022-12-10T07:40:25;0.80;99.90
24176;DHT22;12324;48.146;11.502;2022-12-10T07:42:51;0.80;99.90
24176;DHT22;12324;48.146;11.502;2022-12-10T07:45:18;0.80;99.90
24176;DHT22;12324;48.146;11.502;2022-12-10T07:47:44;0.70;99.90
24176;DHT22;12324;48.146;11.502;2022-12-10T07:50:11;0.70;99.90
24176;DHT22;12324;48.146;11.502;2022-12-10T07:52:38;0.70;99.90
24176;DHT22;12324;48.146;11.502;2022-12-10T07:55:05;0.90;99.90
24176;DHT22;12324;48.146;11.502;2022-12-10T07:57:32;1.00;99.90
24176;DHT22;12324;48.146;11.502;2022-12-10T07:59:58;0.90;99.90
24176;DHT22;12324;48.146;11.502;2022-12-10T08:02:25;0.80;99.90
24176;DHT22;12324;48.146;11.502;2022-12-10T08:04:52;0.80;99.90
24176;DHT22;12324;48.146;11.502;2022-12-10T08:07:18;0.90;99.90
24176;DHT22;12324;48.146;11.502;2022-12-10T08:09:45;1.10;99.90
24176;DHT22;12324;48.146;11.502;2022-12-10T08:12:11;1.10;99.90
24176;DHT22;12324;48.146;11.502;2022-12-10T08:14:38;1.00;99.90
24176;DHT22;12324;48.146;11.502;2022-12-10T08:17:05;1.00;99.90
24176;DHT22;12324;48.146;11.502;2022-12-10T08:19:31;0.90;99.90
24176;DHT22;12324;48.146;11.502;2022-12-10T08:21:58;0.80;99.90
24176;DHT22;12324;48.146;11.502;2022-12-10T08:24:25;0.80;99.90
24176;DHT22;12324;48.146;11.502;2022-12-10T08:26:51;0.80;99.90
24176;DHT22;12324;48.146;11.502;2022-12-10T08:29:18;0.80;99.90
24176;DHT22;12324;48.146;11.502;2022-12-10T08:31:45;0.90;99.90
24176;DHT22;12324;48.146;11.502;2022-12-10T08:34:14;1.00;99.90
24176;DHT22;12324;48.146;11.502;2022-12-10T08:36:42;1.10;99.90
24176;DHT22;12324;48.146;11.502;2022-12-10T08:39:08;1.00;99.90
24176;DHT22;12324;48.146;11.502;2022-12-10T08:41:36;1.40;99.90
24176;DHT22;12324;48.146;11.502;2022-12-10T08:44:03;1.20;99.90
24176;DHT22;12324;48.146;11.502;2022-12-10T08:46:30;1.20;99.90
24176;DHT22;12324;48.146;11.502;2022-12-10T08:48:56;0.90;99.90
24176;DHT22;12324;48.146;11.502;2022-12-10T08:51:23;0.90;99.90
24176;DHT22;12324;48.146;11.502;2022-12-10T08:53:50;0.90;99.90
24176;DHT22;12324;48.146;11.502;2022-12-10T08:56:17;0.90;99.90
24176;DHT22;12324;48.146;11.502;2022-12-10T08:58:43;1.00;99.90
24176;DHT22;12324;48.146;11.502;2022-12-10T09:01:13;1.30;99.90
24176;DHT22;12324;48.146;11.502;2022-12-10T09:03:40;1.10;99.90
24176;DHT22;12324;48.146;11.502;2022-12-10T09:06:09;1.10;99.90
24176;DHT22;12324;48.146;11.502;2022-12-10T09:08:37;1.40;99.90
24176;DHT22;12324;48.146;11.502;2022-12-10T09:11:14;1.80;99.90
24176;DHT22;12324;48.146;11.502;2022-12-10T09:13:41;1.80;99.90
24176;DHT22;12324;48.146;11.502;2022-12-10T09:16:08;1.70;99.90
24176;DHT22;12324;48.146;11.502;2022-12-10T09:18:36;1.70;99.90
24176;DHT22;12324;48.146;11.502;2022-12-10T09:21:10;1.50;99.90
24176;DHT22;12324;48.146;11.502;2022-12-10T09:23:40;1.50;99.90
24176;DHT22;12324;48.146;11.502;2022-12-10T09:26:11;1.30;99.90
24176;DHT22;12324;48.146;11.502;2022-12-10T09:28:39;1.50;99.90
24176;DHT22;12324;48.146;11.502;2022-12-10T09:31:07;1.30;99.90
24176;DHT22;12324;48.146;11.502;2022-12-10T09:33:46;1.10;99.90
24176;DHT22;12324;48.146;11.502;2022-12-10T09:36:13;1.20;99.90
24176;DHT22;12324;48.146;11.502;2022-12-10T09:38:42;1.10;99.90
24176;DHT22;12324;48.146;11.502;2022-12-10T09:44:10;1.20;99.90
24176;DHT22;12324;48.146;11.502;2022-12-10T09:46:52;1.20;99.90
24176;DHT22;12324;48.146;11.502;2022-12-10T09:52:13;1.10;99.90
24176;DHT22;12324;48.146;11.502;2022-12-10T09:54:56;1.00;99.90
24176;DHT22;12324;48.146;11.502;2022-12-10T09:57:41;1.00;99.90
24176;DHT22;12324;48.146;11.502;2022-12-10T10:02:47;0.90;99.90
24176;DHT22;12324;48.146;11.502;2022-12-10T10:05:29;0.90;99.90
24176;DHT22;12324;48.146;11.502;2022-12-10T10:08:00;0.90;99.90
24176;DHT22;12324;48.146;11.502;2022-12-10T10:10:33;0.80;99.90
24176;DHT22;12324;48.146;11.502;2022-12-10T10:15:42;0.80;99.90
24176;DHT22;12324;48.146;11.502;2022-12-10T10:18:38;0.80;99.90
24176;DHT22;12324;48.146;11.502;2022-12-10T10:21:15;0.80;99.90
24176;DHT22;12324;48.146;11.502;2022-12-10T10:23:44;0.90;99.90
24176;DHT22;12324;48.146;11.502;2022-12-10T10:26:11;0.90;99.90
24176;DHT22;12324;48.146;11.502;2022-12-10T10:28:40;0.80;99.90
24176;DHT22;12324;48.146;11.502;2022-12-10T10:31:20;0.80;99.90
24176;DHT22;12324;48.146;11.502;2022-12-10T10:33:54;0.80;99.90
24176;DHT22;12324;48.146;11.502;2022-12-10T10:36:32;0.80;99.90
24176;DHT22;12324;48.146;11.502;2022-12-10T10:41:38;0.80;99.90
24176;DHT22;12324;48.146;11.502;2022-12-10T10:44:13;0.80;99.90
24176;DHT22;12324;48.146;11.502;2022-12-10T10:46:42;0.80;99.90
24176;DHT22;12324;48.146;11.502;2022-12-10T10:49:29;0.80;99.90
24176;DHT22;12324;48.146;11.502;2022-12-10T10:52:06;0.80;99.90
24176;DHT22;12324;48.146;11.502;2022-12-10T10:54:40;0.80;99.90
24176;DHT22;12324;48.146;11.502;2022-12-10T10:57:24;0.90;99.90
24176;DHT22;12324;48.146;11.502;2022-12-10T10:59:52;0.90;99.90
24176;DHT22;12324;48.146;11.502;2022-12-10T11:02:25;0.90;99.90
24176;DHT22;12324;48.146;11.502;2022-12-10T11:04:54;1.00;99.90
24176;DHT22;12324;48.146;11.502;2022-12-10T11:07:41;1.00;99.90
24176;DHT22;12324;48.146;11.502;2022-12-10T11:10:23;0.90;99.90
24176;DHT22;12324;48.146;11.502;2022-12-10T11:13:14;0.90;99.90
24176;DHT22;12324;48.146;11.502;2022-12-10T11:15:44;0.90;99.90
24176;DHT22;12324;48.146;11.502;2022-12-10T11:18:34;0.90;99.90
24176;DHT22;12324;48.146;11.502;2022-12-10T11:23:53;0.90;99.90
24176;DHT22;12324;48.146;11.502;2022-12-10T11:32:20;0.90;99.90
24176;DHT22;12324;48.146;11.502;2022-12-10T11:40:23;1.00;99.90
24176;DHT22;12324;48.146;11.502;2022-12-10T11:51:34;1.10;99.90
24176;DHT22;12324;48.146;11.502;2022-12-10T11:56:48;1.00;99.90
24176;DHT22;12324;48.146;11.502;2022-12-10T12:02:39;1.00;99.90
24176;DHT22;12324;48.146;11.502;2022-12-10T12:08:18;1.00;99.90
24176;DHT22;12324;48.146;11.502;2022-12-10T12:13:27;0.90;99.90
24176;DHT22;12324;48.146;11.502;2022-12-10T12:16:05;0.80;99.90
24176;DHT22;12324;48.146;11.502;2022-12-10T12:19:05;0.70;99.90
24176;DHT22;12324;48.146;11.502;2022-12-10T12:21:36;0.70;99.90
24176;DHT22;12324;48.146;11.502;2022-12-10T12:24:12;0.70;99.90
24176;DHT22;12324;48.146;11.502;2022-12-10T12:26:47;0.70;99.90
24176;DHT22;12324;48.146;11.502;2022-12-10T12:31:59;0.70;99.90
24176;DHT22;12324;48.146;11.502;2022-12-10T12:37:21;0.70;99.90
24176;DHT22;12324;48.146;11.502;2022-12-10T12:42:34;0.70;99.90
24176;DHT22;12324;48.146;11.502;2022-12-10T12:45:15;0.70;99.90
24176;DHT22;12324;48.146;11.502;2022-12-10T12:47:56;0.80;99.90
24176;DHT22;12324;48.146;11.502;2022-12-10T12:50:35;0.80;99.90
24176;DHT22;12324;48.146;11.502;2022-12-10T12:53:08;0.70;99.90
24176;DHT22;12324;48.146;11.502;2022-12-10T12:56:01;0.80;99.90
24176;DHT22;12324;48.146;11.502;2022-12-10T12:58:45;0.80;99.90
24176;DHT22;12324;48.146;11.502;2022-12-10T13:03:50;0.70;99.90
24176;DHT22;12324;48.146;11.502;2022-12-10T13:06:29;0.70;99.90
24176;DHT22;12324;48.146;11.502;2022-12-10T13:29:45;0.60;99.90
24176;DHT22;12324;48.146;11.502;2022-12-10T13:40:36;0.60;99.90
24176;DHT22;12324;48.146;11.502;2022-12-10T13:48:55;0.60;99.90
24176;DHT22;12324;48.146;11.502;2022-12-10T14:00:31;0.60;99.90
24176;DHT22;12324;48.146;11.502;2022-12-10T14:08:28;0.60;99.90
24176;DHT22;12324;48.146;11.502;2022-12-10T14:10:58;0.60;99.90
24176;DHT22;12324;48.146;11.502;2022-12-10T14:13:39;0.50;99.90
24176;DHT22;12324;48.146;11.502;2022-12-10T14:16:11;0.50;99.90
24176;DHT22;12324;48.146;11.502;2022-12-10T14:18:41;0.50;99.90
24176;DHT22;12324;48.146;11.502;2022-12-10T14:21:13;0.50;99.90
24176;DHT22;12324;48.146;11.502;2022-12-10T14:23:45;0.50;99.90
24176;DHT22;12324;48.146;11.502;2022-12-10T14:26:30;0.40;99.90
24176;DHT22;12324;48.146;11.502;2022-12-10T14:29:00;0.40;99.90
24176;DHT22;12324;48.146;11.502;2022-12-10T14:31:31;0.40;99.90
24176;DHT22;12324;48.146;11.502;2022-12-10T14:34:02;0.40;99.90
24176;DHT22;12324;48.146;11.502;2022-12-10T14:36:33;0.40;99.90
24176;DHT22;12324;48.146;11.502;2022-12-10T14:39:01;0.40;99.90
24176;DHT22;12324;48.146;11.502;2022-12-10T14:41:29;0.40;99.90
24176;DHT22;12324;48.146;11.502;2022-12-10T14:44:04;0.40;99.90
24176;DHT22;12324;48.146;11.502;2022-12-10T14:46:31;0.40;99.90
24176;DHT22;12324;48.146;11.502;2022-12-10T14:48:59;0.50;99.90
24176;DHT22;12324;48.146;11.502;2022-12-10T14:51:30;0.40;99.90
24176;DHT22;12324;48.146;11.502;2022-12-10T14:53:58;0.50;99.90
24176;DHT22;12324;48.146;11.502;2022-12-10T14:56:37;0.40;99.90
24176;DHT22;12324;48.146;11.502;2022-12-10T14:59:34;0.30;99.90
24176;DHT22;12324;48.146;11.502;2022-12-10T15:02:20;0.30;99.90
24176;DHT22;12324;48.146;11.502;2022-12-10T15:04:48;0.40;99.90
24176;DHT22;12324;48.146;11.502;2022-12-10T15:07:24;0.40;99.90
24176;DHT22;12324;48.146;11.502;2022-12-10T15:09:53;0.30;99.90
24176;DHT22;12324;48.146;11.502;2022-12-10T15:12:32;0.30;99.90
24176;DHT22;12324;48.146;11.502;2022-12-10T15:15:09;0.30;99.90
24176;DHT22;12324;48.146;11.502;2022-12-10T15:17:52;0.30;99.90
24176;DHT22;12324;48.146;11.502;2022-12-10T15:20:30;0.30;99.90
24176;DHT22;12324;48.146;11.502;2022-12-10T15:23:33;0.40;99.90
24176;DHT22;12324;48.146;11.502;2022-12-10T15:26:23;0.30;99.90
24176;DHT22;12324;48.146;11.502;2022-12-10T15:28:52;0.30;99.90
24176;DHT22;12324;48.146;11.502;2022-12-10T15:34:18;0.30;99.90
24176;DHT22;12324;48.146;11.502;2022-12-10T15:36:50;0.30;99.90
24176;DHT22;12324;48.146;11.502;2022-12-10T15:39:21;0.20;99.90
24176;DHT22;12324;48.146;11.502;2022-12-10T15:41:52;0.20;99.90
24176;DHT22;12324;48.146;11.502;2022-12-10T15:44:39;0.20;99.90
24176;DHT22;12324;48.146;11.502;2022-12-10T15:47:26;0.20;99.90
24176;DHT22;12324;48.146;11.502;2022-12-10T15:49:54;0.20;99.90
24176;DHT22;12324;48.146;11.502;2022-12-10T15:52:27;0.20;99.90
24176;DHT22;12324;48.146;11.502;2022-12-10T15:54:55;0.20;99.90
24176;DHT22;12324;48.146;11.502;2022-12-10T15:57:25;0.10;99.90
24176;DHT22;12324;48.146;11.502;2022-12-10T15:59:54;0.10;99.90
24176;DHT22;12324;48.146;11.502;2022-12-10T16:02:35;0.00;99.90
24176;DHT22;12324;48.146;11.502;2022-12-10T16:07:45;0.00;99.90
24176;DHT22;12324;48.146;11.502;2022-12-10T16:10:14;0.00;99.90
24176;DHT22;12324;48.146;11.502;2022-12-10T16:12:41;-0.10;99.90
24176;DHT22;12324;48.146;11.502;2022-12-10T16:15:15;-0.10;99.90
24176;DHT22;12324;48.146;11.502;2022-12-10T16:17:43;-0.10;99.90
24176;DHT22;12324;48.146;11.502;2022-12-10T16:20:26;-0.10;99.90
24176;DHT22;12324;48.146;11.502;2022-12-10T16:22:54;-0.10;99.90
24176;DHT22;12324;48.146;11.502;2022-12-10T16:25:23;-0.10;99.90
24176;DHT22;12324;48.146;11.502;2022-12-10T16:27:50;-0.10;99.90
24176;DHT22;12324;48.146;11.502;2022-12-10T16:30:22;-0.10;99.90
24176;DHT22;12324;48.146;11.502;2022-12-10T16:32:49;0.30;99.90
24176;DHT22;12324;48.146;11.502;2022-12-10T16:35:16;0.10;99.90
24176;DHT22;12324;48.146;11.502;2022-12-10T16:37:44;0.00;99.90
24176;DHT22;12324;48.146;11.502;2022-12-10T16:40:13;0.10;99.90
24176;DHT22;12324;48.146;11.502;2022-12-10T16:42:41;0.00;99.90
24176;DHT22;12324;48.146;11.502;2022-12-10T16:45:20;0.10;99.90
24176;DHT22;12324;48.146;11.502;2022-12-10T16:47:47;0.20;99.90
24176;DHT22;12324;48.146;11.502;2022-12-10T16:50:15;0.20;99.90
24176;DHT22;12324;48.146;11.502;2022-12-10T16:52:42;0.00;99.90
24176;DHT22;12324;48.146;11.502;2022-12-10T16:55:22;0.10;99.90
24176;DHT22;12324;48.146;11.502;2022-12-10T16:57:49;0.10;99.90
24176;DHT22;12324;48.146;11.502;2022-12-10T17:00:19;0.00;99.90
24176;DHT22;12324;48.146;11.502;2022-12-10T17:02:50;-0.10;99.90
24176;DHT22;12324;48.146;11.502;2022-12-10T17:05:31;0.00;99.90
24176;DHT22;12324;48.146;11.502;2022-12-10T17:07:59;0.20;99.90
24176;DHT22;12324;48.146;11.502;2022-12-10T17:10:26;0.20;99.90
24176;DHT22;12324;48.146;11.502;2022-12-10T17:13:13;0.10;99.90
24176;DHT22;12324;48.146;11.502;2022-12-10T17:15:42;-0.20;99.90
24176;DHT22;12324;48.146;11.502;2022-12-10T17:18:14;-0.20;99.90
24176;DHT22;12324;48.146;11.502;2022-12-10T17:20:42;-0.20;99.90
24176;DHT22;12324;48.146;11.502;2022-12-10T17:23:08;-0.20;99.90
24176;DHT22;12324;48.146;11.502;2022-12-10T17:25:36;-0.30;99.90
24176;DHT22;12324;48.146;11.502;2022-12-10T17:28:03;-0.30;99.90
24176;DHT22;12324;48.146;11.502;2022-12-10T17:30:29;-0.30;99.90
24176;DHT22;12324;48.146;11.502;2022-12-10T17:32:56;-0.40;99.90
24176;DHT22;12324;48.146;11.502;2022-12-10T17:35:23;-0.40;99.90
24176;DHT22;12324;48.146;11.502;2022-12-10T17:37:50;-0.40;99.90
24176;DHT22;12324;48.146;11.502;2022-12-10T17:40:21;-0.50;99.90
24176;DHT22;12324;48.146;11.502;2022-12-10T17:42:49;-0.50;99.90
24176;DHT22;12324;48.146;11.502;2022-12-10T17:45:18;-0.50;99.90
24176;DHT22;12324;48.146;11.502;2022-12-10T17:47:48;-0.60;99.90
24176;DHT22;12324;48.146;11.502;2022-12-10T17:50:27;-0.50;99.90
24176;DHT22;12324;48.146;11.502;2022-12-10T17:52:58;-0.60;99.90
24176;DHT22;12324;48.146;11.502;2022-12-10T17:55:26;-0.50;99.90
24176;DHT22;12324;48.146;11.502;2022-12-10T17:57:53;-0.50;99.90
24176;DHT22;12324;48.146;11.502;2022-12-10T18:00:21;-0.50;99.90
24176;DHT22;12324;48.146;11.502;2022-12-10T18:02:48;-0.60;99.90